createdAt,value
2018-12-23T00:03:46.704Z,2.60
2018-12-23T00:06:14.189Z,3.23
2018-12-23T00:08:41.666Z,3.10
2018-12-23T00:28:30.545Z,3.90
2018-12-23T00:30:57.997Z,3.73
2018-12-23T00:33:25.620Z,3.43
2018-12-23T00:35:53.535Z,3.47
2018-12-23T00:38:20.993Z,4.93
2018-12-23T00:40:48.458Z,4.47
2018-12-23T00:43:16.131Z,4.40
2018-12-23T00:45:43.605Z,3.20
2018-12-23T00:48:11.060Z,5.23
2018-12-23T00:50:38.718Z,4.03
2018-12-23T00:53:06.180Z,3.80
2018-12-23T01:12:55.146Z,5.77
2018-12-23T01:16:08.476Z,4.03
2018-12-23T01:18:49.340Z,5.30
2018-12-23T01:21:30.583Z,5.10
2018-12-23T01:24:11.937Z,3.10
2018-12-23T01:26:53.205Z,5.10
2018-12-23T01:29:34.492Z,5.40
2018-12-23T01:32:15.390Z,3.93
2018-12-23T01:34:56.347Z,2.47
2018-12-23T01:37:37.479Z,3.63
2018-12-23T01:40:18.803Z,3.87
2018-12-23T01:43:00.094Z,5.17
2018-12-23T01:45:40.989Z,5.63
2018-12-23T01:48:22.124Z,4.50
2018-12-23T01:51:03.466Z,3.47
2018-12-23T01:57:05.226Z,3.83
2018-12-23T02:00:04.771Z,6.07
2018-12-23T02:05:50.925Z,4.87
2018-12-23T02:08:32.060Z,5.00
2018-12-23T02:11:12.548Z,5.20
2018-12-23T02:13:53.591Z,5.57
2018-12-23T02:16:35.026Z,5.70
2018-12-23T02:19:15.631Z,6.67
2018-12-23T02:21:56.080Z,8.00
2018-12-23T02:24:37.375Z,8.43
2018-12-23T02:27:18.100Z,6.53
2018-12-23T02:29:59.000Z,5.43
2018-12-23T02:32:39.615Z,7.93
2018-12-23T02:35:20.207Z,6.10
2018-12-23T02:38:01.327Z,6.93
2018-12-23T02:40:42.168Z,3.70
2018-12-23T02:43:23.648Z,6.10
2018-12-23T02:46:04.019Z,5.77
2018-12-23T02:48:45.328Z,5.27
2018-12-23T02:51:25.765Z,3.67
2018-12-23T02:54:06.864Z,4.87
2018-12-23T02:56:48.064Z,7.27
2018-12-23T02:59:28.931Z,7.90
2018-12-23T03:02:09.478Z,4.63
2018-12-23T03:04:50.468Z,4.90
2018-12-23T03:07:31.654Z,5.20
2018-12-23T03:10:12.703Z,3.33
2018-12-23T03:12:53.952Z,6.27
2018-12-23T03:15:34.723Z,6.23
2018-12-23T03:18:15.737Z,4.83
2018-12-23T03:20:57.066Z,4.40
2018-12-23T03:23:37.795Z,4.37
2018-12-23T03:26:19.768Z,4.43
2018-12-23T03:29:00.955Z,5.10
2018-12-23T03:31:42.411Z,5.90
2018-12-23T03:34:23.586Z,4.60
2018-12-23T03:37:04.347Z,2.77
2018-12-23T03:39:45.117Z,4.73
2018-12-23T03:42:24.068Z,4.43
2018-12-23T03:45:11.940Z,5.00
2018-12-23T03:50:53.274Z,2.70
2018-12-23T03:53:41.167Z,3.83
2018-12-23T03:56:29.042Z,3.23
2018-12-23T03:59:16.962Z,4.00
2018-12-23T04:02:04.850Z,1.70
2018-12-23T04:04:52.820Z,2.23
2018-12-23T04:07:40.694Z,4.37
2018-12-23T04:13:22.036Z,4.17
2018-12-23T04:16:10.064Z,3.00
2018-12-23T04:18:59.535Z,2.07
2018-12-23T04:27:35.096Z,4.30
2018-12-23T04:30:15.570Z,6.33
2018-12-23T04:32:56.596Z,5.73
2018-12-23T04:35:37.675Z,5.80
2018-12-23T04:38:18.959Z,5.30
2018-12-23T04:40:59.847Z,4.07
2018-12-23T04:43:41.165Z,9.33
2018-12-23T04:46:22.209Z,7.20
2018-12-23T04:49:03.026Z,2.90
2018-12-23T04:51:44.207Z,6.77
2018-12-23T04:54:44.615Z,8.77
2018-12-23T05:01:02.087Z,4.17
2018-12-23T05:04:01.899Z,7.37
2018-12-23T05:09:46.768Z,5.53
2018-12-23T05:12:28.212Z,3.23
2018-12-23T05:15:08.937Z,2.63
2018-12-23T05:17:50.007Z,2.23
2018-12-23T05:20:31.287Z,4.70
2018-12-23T05:23:12.408Z,2.67
2018-12-23T05:25:53.528Z,3.50
2018-12-23T05:31:52.951Z,3.40
2018-12-23T05:34:34.147Z,2.23
2018-12-23T05:37:14.970Z,4.07
2018-12-23T05:39:55.801Z,3.07
2018-12-23T05:42:36.813Z,2.17
2018-12-23T05:45:17.829Z,4.10
2018-12-23T05:47:58.987Z,3.43
2018-12-23T05:50:39.799Z,1.70
2018-12-23T05:53:21.127Z,3.43
2018-12-23T05:56:01.939Z,5.57
2018-12-23T05:58:43.288Z,2.60
2018-12-23T06:01:24.616Z,3.43
2018-12-23T06:04:06.080Z,1.50
2018-12-23T06:06:46.807Z,2.00
2018-12-23T06:09:27.991Z,6.07
2018-12-23T06:12:08.679Z,1.77
2018-12-23T06:14:49.667Z,1.77
2018-12-23T06:17:30.416Z,2.20
2018-12-23T06:20:11.527Z,2.57
2018-12-23T06:22:52.408Z,1.87
2018-12-23T06:28:39.515Z,1.70
2018-12-23T06:31:20.267Z,2.00
2018-12-23T06:34:01.184Z,2.70
2018-12-23T06:36:41.935Z,3.10
2018-12-23T06:39:23.088Z,1.80
2018-12-23T06:42:03.783Z,2.93
2018-12-23T06:44:45.050Z,1.90
2018-12-23T06:47:26.300Z,4.73
2018-12-23T06:50:07.759Z,3.03
2018-12-23T06:52:48.439Z,2.30
2018-12-23T06:55:29.316Z,2.37
2018-12-23T06:58:09.976Z,4.17
2018-12-23T07:00:51.096Z,2.17
2018-12-23T07:03:32.236Z,2.00
2018-12-23T07:06:13.464Z,2.27
2018-12-23T07:08:54.762Z,5.67
2018-12-23T07:11:35.263Z,2.00
2018-12-23T07:14:16.040Z,2.20
2018-12-23T07:16:56.843Z,2.20
2018-12-23T07:19:37.268Z,2.47
2018-12-23T07:22:18.619Z,2.33
2018-12-23T07:24:59.857Z,2.77
2018-12-23T07:27:40.660Z,2.00
2018-12-23T07:30:21.846Z,2.50
2018-12-23T07:33:03.228Z,1.90
2018-12-23T07:35:44.583Z,2.20
2018-12-23T07:38:25.944Z,3.50
2018-12-23T07:41:06.741Z,2.13
2018-12-23T07:43:47.513Z,2.50
2018-12-23T07:46:28.355Z,3.70
2018-12-23T07:49:09.535Z,2.33
2018-12-23T07:51:50.357Z,2.30
2018-12-23T07:57:39.678Z,2.37
2018-12-23T08:09:47.804Z,2.33
2018-12-23T08:12:28.731Z,2.40
2018-12-23T08:15:09.855Z,2.40
2018-12-23T08:17:51.014Z,4.97
2018-12-23T08:20:31.976Z,3.60
2018-12-23T08:23:12.787Z,5.27
2018-12-23T08:25:54.227Z,2.97
2018-12-23T08:28:35.086Z,2.37
2018-12-23T08:31:16.329Z,2.73
2018-12-23T08:33:57.184Z,2.27
2018-12-23T08:36:38.283Z,2.30
2018-12-23T08:39:19.779Z,2.27
2018-12-23T08:42:00.582Z,1.90
2018-12-23T08:44:39.507Z,4.50
2018-12-23T08:50:21.103Z,2.87
2018-12-23T08:56:02.091Z,4.77
2018-12-23T08:58:50.002Z,2.13
2018-12-23T09:01:38.236Z,3.10
2018-12-23T09:04:26.162Z,3.83
2018-12-23T09:07:14.039Z,3.43
2018-12-23T09:12:55.160Z,2.80
2018-12-23T09:15:42.640Z,2.40
2018-12-23T09:18:30.532Z,5.63
2018-12-23T09:24:11.787Z,3.73
2018-12-23T09:29:52.405Z,3.17
2018-12-23T09:32:40.590Z,4.60
2018-12-23T09:35:28.464Z,1.87
2018-12-23T09:41:09.722Z,2.57
2018-12-23T09:43:57.649Z,4.50
2018-12-23T09:46:38.377Z,1.83
2018-12-23T09:49:19.660Z,2.43
2018-12-23T09:51:59.992Z,2.37
2018-12-23T09:54:40.695Z,2.10
2018-12-23T09:57:19.688Z,5.97
2018-12-23T10:03:01.995Z,3.97
2018-12-23T10:05:49.911Z,2.33
2018-12-23T10:08:38.084Z,5.80
2018-12-23T10:14:19.880Z,4.63
2018-12-23T10:20:01.605Z,3.33
2018-12-23T10:25:42.824Z,2.70
2018-12-23T10:31:24.544Z,2.73
2018-12-23T10:37:06.187Z,1.97
2018-12-23T10:42:47.496Z,2.53
2018-12-23T10:45:35.411Z,6.70
2018-12-23T10:48:23.361Z,3.83
2018-12-23T10:51:11.287Z,3.13
2018-12-23T10:54:17.491Z,4.43
2018-12-23T10:59:50.944Z,4.77
2018-12-23T11:02:32.268Z,4.17
2018-12-23T11:08:30.425Z,4.53
2018-12-23T11:11:10.735Z,5.20
2018-12-23T11:13:52.423Z,9.00
2018-12-23T11:16:32.804Z,3.47
2018-12-23T11:19:13.898Z,9.87
2018-12-23T11:21:54.784Z,2.80
2018-12-23T11:24:35.998Z,7.23
2018-12-23T11:27:17.025Z,3.60
2018-12-23T11:29:58.239Z,3.50
2018-12-23T11:32:39.268Z,3.90
2018-12-23T11:35:20.419Z,2.37
2018-12-23T11:38:01.264Z,4.67
2018-12-23T11:40:42.431Z,3.97
2018-12-23T11:43:23.399Z,4.47
2018-12-23T11:46:04.162Z,3.07
2018-12-23T11:48:45.046Z,5.40
2018-12-23T11:51:26.116Z,5.10
2018-12-23T11:54:06.444Z,3.63
2018-12-23T11:56:47.873Z,3.33
2018-12-23T11:59:28.667Z,3.43
2018-12-23T12:02:15.193Z,6.53
2018-12-23T12:04:52.522Z,5.43
2018-12-23T12:07:33.598Z,3.80
2018-12-23T12:10:14.295Z,3.80
2018-12-23T12:16:01.072Z,2.17
2018-12-23T12:18:41.853Z,4.80
2018-12-23T12:21:23.191Z,3.13
2018-12-23T12:24:04.057Z,2.67
2018-12-23T12:26:44.628Z,2.63
2018-12-23T12:29:25.512Z,3.00
2018-12-23T12:32:06.547Z,3.23
2018-12-23T12:34:47.263Z,2.33
2018-12-23T12:37:29.018Z,2.87
2018-12-23T12:40:09.998Z,2.90
2018-12-23T12:42:51.554Z,2.33
2018-12-23T12:45:32.365Z,3.40
2018-12-23T12:48:13.316Z,4.00
2018-12-23T12:50:54.259Z,4.30
2018-12-23T12:53:35.795Z,3.77
2018-12-23T12:56:16.344Z,4.40
2018-12-23T13:02:05.511Z,3.03
2018-12-23T13:04:46.092Z,2.50
2018-12-23T13:07:27.740Z,2.97
2018-12-23T13:10:08.543Z,2.70
2018-12-23T13:12:49.692Z,4.17
2018-12-23T13:15:30.440Z,2.83
2018-12-23T13:18:11.508Z,4.10
2018-12-23T13:20:52.740Z,3.03
2018-12-23T13:23:33.659Z,3.53
2018-12-23T13:26:15.008Z,2.47
2018-12-23T13:28:56.383Z,3.70
2018-12-23T13:31:36.984Z,4.77
2018-12-23T13:34:18.326Z,2.17
2018-12-23T13:36:58.920Z,4.90
2018-12-23T13:39:40.355Z,2.70
2018-12-23T13:42:20.949Z,2.83
2018-12-23T13:45:01.957Z,3.40
2018-12-23T13:47:43.123Z,2.63
2018-12-23T13:50:24.254Z,2.17
2018-12-23T13:53:05.550Z,2.10
2018-12-23T13:55:47.715Z,2.03
2018-12-23T13:58:28.132Z,1.93
2018-12-23T14:07:57.075Z,2.27
2018-12-23T14:11:05.688Z,1.90
2018-12-23T14:16:46.931Z,1.87
2018-12-23T14:22:28.925Z,1.77
2018-12-23T14:25:18.519Z,2.03
2018-12-23T14:30:59.995Z,1.97
2018-12-23T14:36:43.817Z,1.43
2018-12-23T14:39:31.727Z,1.60
2018-12-23T14:42:19.611Z,1.77
2018-12-23T14:48:01.232Z,1.57
2018-12-23T14:53:42.944Z,1.83
2018-12-23T15:02:18.030Z,2.87
2018-12-23T15:05:06.270Z,2.00
2018-12-23T15:10:47.069Z,2.10
2018-12-23T15:16:28.360Z,1.77
2018-12-23T15:22:09.176Z,1.83
2018-12-23T15:27:50.488Z,1.80
2018-12-23T15:33:32.243Z,3.17
2018-12-23T15:39:13.907Z,2.53
2018-12-23T15:44:54.919Z,1.90
2018-12-23T15:50:54.824Z,1.70
2018-12-23T15:53:42.740Z,2.03
2018-12-23T15:56:30.961Z,1.80
2018-12-23T16:02:12.318Z,2.90
2018-12-23T16:07:44.372Z,1.80
2018-12-23T16:10:32.275Z,3.67
2018-12-23T16:13:20.148Z,1.83
2018-12-23T16:16:08.057Z,1.93
2018-12-23T16:18:55.935Z,3.50
2018-12-23T16:24:37.524Z,2.70
2018-12-23T16:30:19.137Z,2.57
2018-12-23T16:33:07.101Z,3.30
2018-12-23T16:35:54.980Z,2.07
2018-12-23T16:41:36.016Z,2.00
2018-12-23T16:47:17.938Z,3.23
2018-12-23T16:50:43.238Z,2.03
2018-12-23T16:57:13.813Z,1.83
2018-12-23T16:59:42.338Z,1.90
2018-12-23T17:02:10.875Z,1.97
2018-12-23T17:04:39.511Z,1.80
2018-12-23T17:07:08.124Z,1.57
2018-12-23T17:12:41.431Z,2.30
2018-12-23T17:15:09.995Z,2.77
2018-12-23T17:17:38.522Z,2.33
2018-12-23T17:23:35.114Z,3.05
2018-12-23T17:29:31.464Z,2.53
2018-12-23T17:32:00.260Z,1.77
2018-12-23T17:38:08.790Z,2.30
2018-12-23T17:40:37.324Z,1.50
2018-12-23T17:43:05.858Z,2.40
2018-12-23T17:49:01.916Z,1.57
2018-12-23T17:51:30.447Z,1.80
2018-12-23T17:53:59.083Z,1.67
2018-12-23T17:56:27.625Z,1.63
2018-12-23T17:58:56.164Z,1.40
2018-12-23T18:04:52.651Z,1.63
2018-12-23T18:10:49.311Z,1.57
2018-12-23T18:13:18.106Z,1.70
2018-12-23T18:19:27.054Z,1.63
2018-12-23T18:25:36.224Z,1.53
2018-12-23T18:28:04.775Z,1.70
2018-12-23T18:30:33.310Z,1.50
2018-12-23T18:33:01.959Z,1.40
2018-12-23T18:35:30.504Z,1.30
2018-12-23T18:37:59.069Z,1.47
2018-12-23T18:40:33.325Z,1.30
2018-12-23T18:42:57.939Z,1.50
2018-12-23T18:45:26.469Z,2.00
2018-12-23T18:51:22.490Z,1.90
2018-12-23T18:53:51.023Z,1.50
2018-12-23T18:59:47.342Z,1.93
2018-12-23T19:02:16.220Z,1.20
2018-12-23T19:08:25.793Z,1.33
2018-12-23T19:11:00.324Z,1.07
2018-12-23T19:16:44.932Z,1.57
2018-12-23T19:19:31.499Z,1.10
2018-12-23T19:22:28.693Z,1.10
2018-12-23T19:25:21.515Z,0.90
2018-12-23T19:32:00.400Z,1.00
2018-12-23T19:35:06.567Z,1.40
2018-12-23T19:37:59.051Z,1.00
2018-12-23T19:40:50.315Z,1.03
2018-12-23T19:43:51.406Z,1.00
2018-12-23T19:46:25.606Z,1.20
2018-12-23T19:48:57.483Z,1.30
2018-12-23T19:51:41.005Z,1.00
2018-12-23T19:57:58.036Z,1.30
2018-12-23T20:00:35.399Z,1.00
2018-12-23T20:07:18.729Z,1.03
2018-12-23T20:13:42.523Z,1.23
2018-12-23T20:16:14.142Z,0.90
2018-12-23T20:22:27.837Z,1.40
2018-12-23T20:25:02.643Z,1.00
2018-12-23T20:31:33.897Z,0.90
2018-12-23T20:34:23.468Z,1.03
2018-12-23T20:37:03.657Z,0.97
2018-12-23T20:39:43.895Z,1.40
2018-12-23T20:42:33.927Z,0.97
2018-12-23T20:49:08.450Z,0.80
2018-12-23T20:55:23.604Z,1.10
2018-12-23T21:01:47.327Z,1.00
2018-12-23T21:04:24.443Z,1.00
2018-12-23T21:10:43.527Z,1.07
2018-12-23T21:13:17.863Z,1.10
2018-12-23T21:19:53.870Z,1.10
2018-12-23T21:26:20.663Z,0.90
2018-12-23T21:29:14.640Z,1.00
2018-12-23T21:35:30.579Z,0.83
2018-12-23T21:38:12.163Z,0.87
2018-12-23T21:41:05.275Z,0.90
2018-12-23T21:43:45.795Z,1.00
2018-12-23T21:46:19.975Z,0.83
2018-12-23T21:48:57.799Z,0.80
2018-12-23T21:51:38.110Z,0.90
2018-12-23T21:54:12.579Z,0.90
2018-12-23T21:57:03.708Z,0.80
2018-12-23T22:03:29.114Z,0.97
2018-12-23T22:06:01.016Z,0.90
2018-12-23T22:08:47.240Z,0.90
2018-12-23T22:11:22.200Z,0.90
2018-12-23T22:13:50.735Z,0.90
2018-12-23T22:16:19.272Z,0.90
2018-12-23T22:18:47.911Z,0.80
2018-12-23T22:21:16.455Z,1.20
2018-12-23T22:23:44.983Z,1.10
2018-12-23T22:26:13.571Z,0.90
2018-12-23T22:28:42.255Z,0.83
2018-12-23T22:31:11.123Z,0.90
2018-12-23T22:37:07.912Z,1.23
2018-12-23T22:39:36.612Z,0.83
2018-12-23T22:42:05.147Z,1.07
2018-12-23T22:44:33.705Z,0.83
2018-12-23T22:50:30.266Z,0.90
2018-12-23T22:52:59.203Z,0.80
2018-12-23T22:55:27.845Z,0.73
2018-12-23T23:01:24.055Z,0.93
2018-12-23T23:03:52.659Z,0.80
2018-12-23T23:06:21.276Z,0.80
2018-12-23T23:08:49.823Z,0.80
2018-12-23T23:11:18.563Z,0.70
2018-12-23T23:17:27.412Z,0.77
2018-12-23T23:19:55.948Z,0.73
2018-12-23T23:22:24.485Z,0.90
2018-12-23T23:28:21.250Z,0.70
2018-12-23T23:30:49.784Z,0.80
2018-12-23T23:33:18.364Z,1.03
2018-12-23T23:35:46.899Z,0.73
2018-12-23T23:38:15.431Z,0.50
2018-12-23T23:40:44.126Z,0.67
2018-12-23T23:46:53.011Z,0.97
2018-12-23T23:49:21.543Z,1.33
2018-12-23T23:55:17.491Z,0.63
2018-12-23T23:57:46.032Z,2.30
